KTMA/TMA METAR and TAF weather

Enter ICAO airport designator
Station Type Date Time Source
KTMA METAR 2021/06/24 05:35 UTC NOAA

KTMA 240535Z AUTO 09004KT 23/22 A3013 RMK AO2 T02250223 PWINO


Station Type Date Time Source
KTMA Decoded METAR 2021/06/24 05:35 UTC NOAA

Station name not available
Jun 24, 2021 - 01:35 AM EDT / 2021.06.24 0535 UTC
Wind: from the E (090 degrees) at 5 MPH (4 KT):0
Temperature: 72.5 F (22.5 C)
Dew Point: 72.1 F (22.3 C)
Relative Humidity: 98%
Pressure (altimeter): 30.13 in. Hg (1020 hPa)
ob: KTMA 240535Z AUTO 09004KT 23/22 A3013 RMK AO2 T02250223 PWINO
cycle: 5

Station Type Date Time Source
KTMA TAF UTC NOAA

Error!

Example: see airport list